KMHS/MHS METAR and TAF weather

Enter ICAO airport designator
Station Type Date Time Source
KMHS METAR 2019/12/08 03:56 UTC NOAA

KMHS 080356Z AUTO 11003KT 10SM BKN035 OVC044 07/04 A2978 RMK AO2 SLP102 T00670039


Station Type Date Time Source
KMHS Decoded METAR 2019/12/08 03:56 UTC NOAA

MOUNT SHASTA, CA, United States (KMHS) 41-19N 122-19W 1078M
Dec 07, 2019 - 10:56 PM EST / 2019.12.08 0356 UTC
Wind: from the ESE (110 degrees) at 3 MPH (3 KT):0
Visibility: 10 mile(s):0
Sky conditions: overcast
Temperature: 44.1 F (6.7 C)
Dew Point: 39.0 F (3.9 C)
Relative Humidity: 82%
Pressure (altimeter): 29.78 in. Hg (1008 hPa)
ob: KMHS 080356Z AUTO 11003KT 10SM BKN035 OVC044 07/04 A2978 RMK AO2 SLP102 T00670039
cycle: 4

Station Type Date Time Source
KMHS TAF UTC NOAA

Error!

Example: see airport list